createdAt,value
2023-01-05T00:01:09.129Z,10.52
2023-01-05T00:03:36.869Z,10.35
2023-01-05T00:06:08.477Z,10.39
2023-01-05T00:08:37.683Z,10.34
2023-01-05T00:11:30.710Z,10.40
2023-01-05T00:14:15.600Z,10.46
2023-01-05T00:17:00.812Z,10.39
2023-01-05T00:19:45.687Z,10.41
2023-01-05T00:22:48.180Z,10.47
2023-01-05T00:25:17.142Z,10.47
2023-01-05T00:27:45.522Z,10.48
2023-01-05T00:30:14.563Z,10.42
2023-01-05T00:32:42.248Z,10.44
2023-01-05T00:35:10.288Z,10.44
2023-01-05T00:37:38.183Z,10.48
2023-01-05T00:40:10.308Z,10.41
2023-01-05T00:42:37.240Z,10.48
2023-01-05T00:45:06.923Z,10.56
2023-01-05T00:47:33.385Z,10.50
2023-01-05T00:49:59.856Z,10.56
2023-01-05T00:52:26.329Z,10.55
2023-01-05T00:54:52.741Z,10.52
2023-01-05T00:57:19.201Z,10.53
2023-01-05T00:59:45.632Z,10.56
2023-01-05T01:02:14.453Z,10.51
2023-01-05T01:04:41.047Z,10.56
2023-01-05T01:07:07.498Z,10.53
2023-01-05T01:09:34.248Z,10.59
2023-01-05T01:12:01.237Z,10.58
2023-01-05T01:14:27.857Z,10.59
2023-01-05T01:16:54.341Z,10.65
2023-01-05T01:19:23.516Z,10.72
2023-01-05T01:21:49.952Z,10.60
2023-01-05T01:24:26.163Z,10.68
2023-01-05T01:26:53.146Z,10.76
2023-01-05T01:29:20.479Z,10.63
2023-01-05T01:31:48.764Z,10.63
2023-01-05T01:34:15.762Z,10.76
2023-01-05T01:36:42.369Z,10.59
2023-01-05T01:39:09.964Z,10.72
2023-01-05T01:41:38.426Z,10.70
2023-01-05T01:44:56.181Z,10.70
2023-01-05T01:47:47.323Z,10.67
2023-01-05T01:50:28.778Z,10.65
2023-01-05T01:53:00.269Z,10.67
2023-01-05T01:55:28.138Z,10.75
2023-01-05T01:57:54.787Z,10.73
2023-01-05T02:00:21.472Z,10.73
2023-01-05T02:02:53.397Z,10.75
2023-01-05T02:05:30.499Z,10.70
2023-01-05T02:07:57.085Z,10.62
2023-01-05T02:10:57.885Z,10.61
2023-01-05T02:14:06.498Z,10.69
2023-01-05T02:16:59.377Z,10.65
2023-01-05T02:20:03.459Z,10.65
2023-01-05T02:27:00.381Z,10.51
2023-01-05T02:29:58.093Z,10.55
2023-01-05T02:32:46.618Z,10.60
2023-01-05T02:35:40.344Z,10.64
2023-01-05T02:38:11.224Z,10.67
2023-01-05T02:40:54.256Z,10.70
2023-01-05T02:43:21.276Z,10.65
2023-01-05T02:45:48.745Z,10.60
2023-01-05T02:48:15.357Z,10.60
2023-01-05T02:50:49.490Z,10.67
2023-01-05T02:53:29.271Z,10.69
2023-01-05T02:56:06.569Z,10.59
2023-01-05T02:58:41.686Z,10.57
2023-01-05T03:01:20.212Z,10.62
2023-01-05T03:03:58.151Z,10.59
2023-01-05T03:06:31.385Z,10.67
2023-01-05T03:09:02.666Z,10.59
2023-01-05T03:12:04.006Z,10.67
2023-01-05T03:14:42.903Z,10.60
2023-01-05T03:17:12.835Z,10.65
2023-01-05T03:19:46.815Z,10.60
2023-01-05T03:22:48.929Z,10.62
2023-01-05T03:25:38.778Z,10.68
2023-01-05T03:28:30.887Z,10.69
2023-01-05T03:31:39.877Z,10.68
2023-01-05T03:34:37.050Z,10.66
2023-01-05T03:37:18.346Z,10.69
2023-01-05T03:39:46.893Z,10.67
2023-01-05T03:42:15.584Z,10.68
2023-01-05T03:44:45.315Z,10.79
2023-01-05T03:47:14.754Z,10.74
2023-01-05T03:49:43.029Z,10.79
2023-01-05T03:52:09.583Z,10.77
2023-01-05T03:54:37.646Z,10.86
2023-01-05T04:01:26.099Z,10.85
2023-01-05T04:03:53.430Z,10.77
2023-01-05T04:06:19.988Z,10.78
2023-01-05T04:08:47.162Z,10.75
2023-01-05T04:11:23.895Z,10.81
2023-01-05T04:14:00.721Z,10.70
2023-01-05T04:16:28.756Z,10.77
2023-01-05T04:19:01.191Z,10.77
2023-01-05T04:21:27.693Z,10.77
2023-01-05T04:23:55.818Z,10.77
2023-01-05T04:26:23.305Z,10.75
2023-01-05T04:28:50.898Z,10.70
2023-01-05T04:31:20.054Z,10.68
2023-01-05T04:33:47.738Z,10.59
2023-01-05T04:36:17.874Z,10.56
2023-01-05T04:38:44.752Z,10.46
2023-01-05T04:41:15.196Z,10.45
2023-01-05T04:43:46.771Z,10.25
2023-01-05T04:46:14.159Z,10.36
2023-01-05T04:48:42.156Z,10.38
2023-01-05T04:51:08.552Z,10.35
2023-01-05T04:53:38.144Z,10.46
2023-01-05T04:56:06.292Z,10.48
2023-01-05T04:58:38.838Z,10.28
2023-01-05T05:01:05.525Z,10.20
2023-01-05T05:03:34.643Z,10.26
2023-01-05T05:06:03.736Z,10.21
2023-01-05T05:08:31.123Z,10.20
2023-01-05T05:10:59.875Z,10.08
2023-01-05T05:13:28.111Z,10.13
2023-01-05T05:15:58.597Z,10.19
2023-01-05T05:18:25.325Z,10.19
2023-01-05T05:20:53.253Z,10.10
2023-01-05T05:23:24.248Z,10.18
2023-01-05T05:25:52.354Z,10.16
2023-01-05T05:28:20.438Z,10.20
2023-01-05T05:30:49.424Z,10.11
2023-01-05T05:33:18.509Z,10.12
2023-01-05T05:35:44.909Z,10.16
2023-01-05T05:38:11.343Z,10.14
2023-01-05T05:40:37.775Z,10.18
2023-01-05T05:43:07.237Z,10.13
2023-01-05T05:45:33.670Z,10.19
2023-01-05T05:48:01.279Z,10.14
2023-01-05T05:50:28.096Z,10.21
2023-01-05T05:52:54.496Z,10.23
2023-01-05T05:55:20.890Z,10.15
2023-01-05T05:57:47.305Z,10.16
2023-01-05T06:00:14.364Z,10.11
2023-01-05T06:02:41.154Z,10.04
2023-01-05T06:05:10.400Z,10.09
2023-01-05T06:07:36.820Z,10.15
2023-01-05T06:10:07.095Z,10.14
2023-01-05T06:12:59.336Z,10.03
2023-01-05T06:15:25.735Z,9.98
2023-01-05T06:17:52.142Z,10.05
2023-01-05T06:20:21.168Z,9.90
2023-01-05T06:22:50.635Z,9.90
2023-01-05T06:25:17.471Z,10.00
2023-01-05T06:27:43.909Z,9.94
2023-01-05T06:30:10.664Z,9.85
2023-01-05T06:32:37.105Z,9.83
2023-01-05T06:35:03.596Z,9.79
2023-01-05T06:37:30.043Z,9.81
2023-01-05T06:39:56.522Z,9.83
2023-01-05T06:42:23.762Z,9.69
2023-01-05T06:44:50.606Z,9.86
2023-01-05T06:47:17.215Z,9.81
2023-01-05T06:49:43.643Z,9.90
2023-01-05T06:52:15.990Z,9.75
2023-01-05T06:54:43.181Z,9.80
2023-01-05T06:57:09.610Z,9.90
2023-01-05T06:59:36.051Z,9.79
2023-01-05T07:02:02.794Z,9.85
2023-01-05T07:04:29.283Z,9.73
2023-01-05T07:06:55.785Z,9.65
2023-01-05T07:09:22.190Z,9.79
2023-01-05T07:11:51.432Z,9.80
2023-01-05T07:14:17.896Z,9.81
2023-01-05T07:16:44.400Z,9.82
2023-01-05T07:19:11.084Z,9.75
2023-01-05T07:21:37.502Z,9.77
2023-01-05T07:24:06.954Z,9.72
2023-01-05T07:26:33.458Z,9.66
2023-01-05T07:28:59.925Z,9.67
2023-01-05T07:31:26.376Z,9.63
2023-01-05T07:33:52.819Z,9.57
2023-01-05T07:36:19.254Z,9.59
2023-01-05T07:38:45.659Z,9.51
2023-01-05T07:41:12.412Z,9.48
2023-01-05T07:43:38.814Z,9.62
2023-01-05T07:46:05.370Z,9.57
2023-01-05T07:48:31.957Z,9.54
2023-01-05T07:51:04.299Z,9.55
2023-01-05T07:53:33.145Z,9.48
2023-01-05T07:56:02.177Z,9.49
2023-01-05T07:58:29.327Z,9.54
2023-01-05T08:00:56.466Z,9.47
2023-01-05T08:03:23.735Z,9.49
2023-01-05T08:05:53.283Z,9.53
2023-01-05T08:08:24.309Z,9.51
2023-01-05T08:10:51.176Z,9.45
2023-01-05T08:13:36.172Z,9.55
2023-01-05T08:16:02.981Z,9.55
2023-01-05T08:18:29.569Z,9.50
2023-01-05T08:21:04.314Z,9.57
2023-01-05T08:23:32.433Z,9.65
2023-01-05T08:26:06.491Z,9.66
2023-01-05T08:28:35.810Z,9.73
2023-01-05T08:31:27.532Z,9.68
2023-01-05T08:34:02.472Z,9.66
2023-01-05T08:36:35.887Z,9.61
2023-01-05T08:39:02.500Z,9.61
2023-01-05T08:41:32.543Z,9.76
2023-01-05T08:44:00.925Z,9.65
2023-01-05T08:46:31.095Z,9.69
2023-01-05T08:48:59.978Z,9.65
2023-01-05T08:51:27.399Z,9.69
2023-01-05T08:53:53.867Z,9.68
2023-01-05T08:56:21.421Z,9.68
2023-01-05T08:58:58.982Z,9.59
2023-01-05T09:01:31.726Z,9.60
2023-01-05T09:03:58.269Z,9.64
2023-01-05T09:06:27.324Z,9.63
2023-01-05T09:08:56.540Z,9.76
2023-01-05T09:11:25.595Z,9.82
2023-01-05T09:13:55.372Z,9.73
2023-01-05T09:16:56.823Z,9.75
2023-01-05T09:19:11.282Z,9.78
2023-01-05T09:21:39.609Z,9.76
2023-01-05T09:24:07.492Z,9.86
2023-01-05T09:26:34.197Z,9.82
2023-01-05T09:29:16.998Z,9.84
2023-01-05T09:31:43.810Z,9.82
2023-01-05T09:34:10.801Z,9.67
2023-01-05T09:36:38.887Z,9.69
2023-01-05T09:39:06.156Z,9.70
2023-01-05T09:41:38.331Z,9.69
2023-01-05T09:44:14.258Z,9.73
2023-01-05T09:46:44.689Z,9.72
2023-01-05T09:49:18.789Z,9.62
2023-01-05T09:51:52.435Z,9.59
2023-01-05T09:54:19.686Z,9.64
2023-01-05T09:59:42.636Z,9.62
2023-01-05T10:02:17.516Z,9.70
2023-01-05T10:04:44.341Z,9.75
2023-01-05T10:07:40.409Z,9.82
2023-01-05T10:10:36.032Z,9.73
2023-01-05T10:13:07.815Z,9.74
2023-01-05T10:15:54.080Z,9.80
2023-01-05T10:18:29.560Z,9.74
2023-01-05T10:21:18.127Z,9.73
2023-01-05T10:23:51.878Z,9.78
2023-01-05T10:26:32.719Z,9.88
2023-01-05T10:29:14.160Z,9.75
2023-01-05T10:32:03.612Z,9.73
2023-01-05T10:34:50.017Z,9.76
2023-01-05T10:37:44.493Z,9.81
2023-01-05T10:40:18.888Z,9.78
2023-01-05T10:43:06.764Z,9.75
2023-01-05T10:45:34.376Z,9.76
2023-01-05T10:48:00.948Z,9.90
2023-01-05T10:50:36.319Z,9.88
2023-01-05T10:53:37.414Z,9.77
2023-01-05T10:56:05.978Z,9.74
2023-01-05T10:58:40.376Z,9.71
2023-01-05T11:01:28.794Z,9.76
2023-01-05T11:04:33.165Z,9.72
2023-01-05T11:07:04.586Z,9.70
2023-01-05T11:09:31.165Z,9.71
2023-01-05T11:12:03.062Z,9.89
2023-01-05T11:14:33.354Z,9.75
2023-01-05T11:17:08.059Z,9.78
2023-01-05T11:19:45.161Z,9.74
2023-01-05T11:22:35.397Z,9.75
2023-01-05T11:25:22.494Z,9.72
2023-01-05T11:28:11.653Z,9.76
2023-01-05T11:30:47.286Z,9.71
2023-01-05T11:33:25.255Z,9.75
2023-01-05T11:35:51.987Z,9.71
2023-01-05T11:38:28.421Z,9.82
2023-01-05T11:41:00.005Z,9.78
2023-01-05T11:43:30.235Z,9.80
2023-01-05T11:46:00.319Z,9.85
2023-01-05T11:48:31.997Z,9.86
2023-01-05T11:50:58.496Z,9.91
2023-01-05T11:53:34.158Z,9.92
2023-01-05T11:56:07.977Z,9.90
2023-01-05T11:58:45.486Z,9.91
2023-01-05T12:01:31.569Z,10.02
2023-01-05T12:04:06.421Z,10.06
2023-01-05T12:06:53.957Z,10.05
2023-01-05T12:09:34.959Z,10.14
2023-01-05T12:12:26.604Z,10.11
2023-01-05T12:15:05.949Z,10.08
2023-01-05T12:17:46.849Z,10.13
2023-01-05T12:20:38.375Z,10.10
2023-01-05T12:23:28.202Z,10.08
2023-01-05T12:26:22.663Z,10.07
2023-01-05T12:35:32.908Z,9.96
2023-01-05T12:38:33.744Z,9.97
2023-01-05T12:41:31.194Z,10.00
2023-01-05T12:44:27.272Z,9.98
2023-01-05T12:47:10.126Z,9.93
2023-01-05T12:49:44.119Z,9.94
2023-01-05T12:52:21.997Z,9.87
2023-01-05T12:54:59.489Z,9.91
2023-01-05T12:57:54.193Z,9.88
2023-01-05T13:00:21.841Z,10.02
2023-01-05T13:03:01.518Z,9.85
2023-01-05T13:05:34.198Z,9.93
2023-01-05T13:08:10.053Z,9.81
2023-01-05T13:10:48.262Z,9.85
2023-01-05T13:13:20.232Z,9.81
2023-01-05T13:16:02.521Z,9.85
2023-01-05T13:18:30.321Z,9.81
2023-01-05T13:21:02.098Z,9.88
2023-01-05T13:23:37.000Z,9.86
2023-01-05T13:26:14.155Z,9.86
2023-01-05T13:28:40.623Z,9.96
2023-01-05T13:31:39.762Z,10.00
2023-01-05T13:34:46.301Z,9.96
2023-01-05T13:37:42.599Z,9.87
2023-01-05T13:40:21.606Z,9.84
2023-01-05T13:43:12.524Z,9.81
2023-01-05T13:46:09.205Z,9.84
2023-01-05T13:49:04.064Z,9.79
2023-01-05T13:51:46.460Z,9.76
2023-01-05T13:54:20.703Z,9.73
2023-01-05T13:56:49.535Z,9.86
2023-01-05T13:59:40.823Z,9.80
2023-01-05T14:02:28.563Z,9.75
2023-01-05T14:04:58.202Z,9.68
2023-01-05T14:07:25.325Z,9.70
2023-01-05T14:09:55.882Z,9.69
2023-01-05T14:12:22.281Z,9.71
2023-01-05T14:15:25.632Z,9.67
2023-01-05T14:17:52.052Z,9.64
2023-01-05T14:20:49.539Z,9.66
2023-01-05T14:23:30.005Z,9.56
2023-01-05T14:26:06.836Z,9.59
2023-01-05T14:28:36.065Z,9.71
2023-01-05T14:31:11.221Z,9.53
2023-01-05T14:33:53.410Z,9.47
2023-01-05T14:36:41.771Z,9.63
2023-01-05T14:39:17.240Z,9.59
2023-01-05T14:41:46.476Z,9.58
2023-01-05T14:44:23.945Z,9.68
2023-01-05T14:46:55.744Z,9.65
2023-01-05T14:49:53.504Z,9.59
2023-01-05T14:53:12.369Z,9.51
2023-01-05T14:56:01.464Z,9.65
2023-01-05T14:58:36.697Z,9.54
2023-01-05T15:01:18.467Z,9.64
2023-01-05T15:03:53.271Z,9.68
2023-01-05T15:06:45.160Z,9.69
2023-01-05T15:09:35.489Z,9.53
2023-01-05T15:12:37.602Z,9.41
2023-01-05T15:15:33.141Z,9.18
2023-01-05T15:18:15.225Z,9.26
2023-01-05T15:21:07.035Z,9.30
2023-01-05T15:23:49.987Z,9.32
2023-01-05T15:26:53.046Z,9.23
2023-01-05T15:29:39.044Z,9.29
2023-01-05T15:32:22.991Z,9.23
2023-01-05T15:35:30.200Z,9.24
2023-01-05T15:37:56.651Z,9.06
2023-01-05T15:40:23.071Z,9.07
2023-01-05T15:42:52.680Z,9.06
2023-01-05T15:45:24.226Z,9.01
2023-01-05T15:47:51.963Z,9.10
2023-01-05T15:50:25.056Z,9.04
2023-01-05T15:53:01.613Z,8.96
2023-01-05T15:55:29.546Z,8.86
2023-01-05T15:58:13.405Z,9.05
2023-01-05T16:00:39.822Z,9.18
2023-01-05T16:03:33.828Z,8.99
2023-01-05T16:06:04.106Z,8.88
2023-01-05T16:08:33.643Z,8.98
2023-01-05T16:11:03.452Z,8.91
2023-01-05T16:13:37.119Z,8.90
2023-01-05T16:16:11.354Z,9.01
2023-01-05T16:18:42.380Z,8.99
2023-01-05T16:21:21.986Z,8.91
2023-01-05T16:24:02.489Z,8.99
2023-01-05T16:26:32.011Z,8.96
2023-01-05T16:28:58.568Z,8.92
2023-01-05T16:31:27.288Z,8.85
2023-01-05T16:34:16.044Z,8.86
2023-01-05T16:37:02.289Z,8.81
2023-01-05T16:39:37.228Z,8.80
2023-01-05T16:42:34.898Z,8.75
2023-01-05T16:45:01.399Z,8.69
2023-01-05T16:47:46.650Z,8.74
2023-01-05T16:50:19.434Z,8.77
2023-01-05T16:52:52.812Z,8.83
2023-01-05T16:55:28.041Z,8.90
2023-01-05T16:57:55.694Z,8.72
2023-01-05T17:00:38.027Z,8.72
2023-01-05T17:03:23.378Z,8.75
2023-01-05T17:05:54.360Z,8.66
2023-01-05T17:08:27.558Z,8.69
2023-01-05T17:11:01.491Z,8.66
2023-01-05T17:13:35.633Z,8.58
2023-01-05T17:16:03.940Z,8.60
2023-01-05T17:18:32.150Z,8.61
2023-01-05T17:21:05.038Z,8.41
2023-01-05T17:23:43.189Z,8.52
2023-01-05T17:26:28.894Z,8.57
2023-01-05T17:28:58.619Z,8.69
2023-01-05T17:31:25.246Z,8.55
2023-01-05T17:33:51.672Z,8.48
2023-01-05T17:36:21.055Z,8.46
2023-01-05T17:38:48.295Z,8.41
2023-01-05T17:41:16.061Z,8.52
2023-01-05T17:43:44.669Z,8.52
2023-01-05T17:46:18.196Z,8.50
2023-01-05T17:48:45.120Z,8.50
2023-01-05T17:51:11.646Z,8.58
2023-01-05T17:53:38.125Z,8.55
2023-01-05T17:56:04.780Z,8.62
2023-01-05T17:58:36.691Z,8.67
2023-01-05T18:01:06.256Z,8.62
2023-01-05T18:03:32.894Z,8.56
2023-01-05T18:06:01.128Z,8.54
2023-01-05T18:08:28.123Z,8.56
2023-01-05T18:10:54.539Z,8.65
2023-01-05T18:13:22.637Z,8.61
2023-01-05T18:15:50.548Z,8.62
2023-01-05T18:18:18.056Z,8.60
2023-01-05T18:20:44.516Z,8.62
2023-01-05T18:23:19.394Z,8.72
2023-01-05T18:25:46.404Z,8.63
2023-01-05T18:28:12.822Z,8.61
2023-01-05T18:30:42.870Z,8.61
2023-01-05T18:33:09.466Z,8.56
2023-01-05T18:35:37.326Z,8.51
2023-01-05T18:38:07.881Z,8.50
2023-01-05T18:40:34.533Z,8.63
2023-01-05T18:43:00.985Z,8.52
2023-01-05T18:45:38.298Z,8.56
2023-01-05T18:48:05.662Z,8.62
2023-01-05T18:50:32.094Z,8.58
2023-01-05T18:52:58.528Z,8.44
2023-01-05T18:55:24.960Z,8.46
2023-01-05T18:57:51.420Z,8.48
2023-01-05T19:00:18.020Z,8.51
2023-01-05T19:02:44.555Z,8.55
2023-01-05T19:05:10.983Z,8.61
2023-01-05T19:07:39.656Z,8.55
2023-01-05T19:10:06.394Z,8.45
2023-01-05T19:12:32.813Z,8.60
2023-01-05T19:14:59.227Z,8.45
2023-01-05T19:17:25.626Z,8.55
2023-01-05T19:19:52.036Z,8.44
2023-01-05T19:22:18.448Z,8.47
2023-01-05T19:24:44.845Z,8.51
2023-01-05T19:27:11.248Z,8.45
2023-01-05T19:29:37.671Z,8.30
2023-01-05T19:32:04.205Z,8.31
2023-01-05T19:34:30.642Z,8.41
2023-01-05T19:36:57.069Z,8.31
2023-01-05T19:39:23.491Z,8.38
2023-01-05T19:41:57.405Z,8.29
2023-01-05T19:44:24.162Z,8.25
2023-01-05T19:47:19.007Z,8.24
2023-01-05T19:49:45.417Z,8.18
2023-01-05T19:52:13.716Z,8.25
2023-01-05T19:54:42.901Z,8.16
2023-01-05T19:57:09.408Z,8.13
2023-01-05T19:59:36.480Z,8.14
2023-01-05T20:02:04.416Z,8.08
2023-01-05T20:04:31.374Z,8.14
2023-01-05T20:06:58.344Z,8.11
2023-01-05T20:09:25.011Z,8.11
2023-01-05T20:11:59.455Z,8.09
2023-01-05T20:14:31.264Z,8.06
2023-01-05T20:17:06.775Z,8.10
2023-01-05T20:19:39.705Z,8.07
2023-01-05T20:22:13.466Z,8.04
2023-01-05T20:24:40.531Z,8.04
2023-01-05T20:27:14.111Z,8.09
2023-01-05T20:29:40.940Z,8.18
2023-01-05T20:32:17.542Z,8.04
2023-01-05T20:34:45.788Z,8.07
2023-01-05T20:37:12.924Z,7.99
2023-01-05T20:39:40.655Z,7.99
2023-01-05T20:42:11.566Z,7.95
2023-01-05T20:44:44.572Z,7.86
2023-01-05T20:51:36.480Z,7.78
2023-01-05T20:54:03.934Z,7.77
2023-01-05T20:56:53.527Z,7.67
2023-01-05T20:59:23.427Z,7.63
2023-01-05T21:01:51.196Z,7.53
2023-01-05T21:04:21.280Z,7.47
2023-01-05T21:06:48.685Z,7.53
2023-01-05T21:09:17.947Z,7.55
2023-01-05T21:11:45.286Z,7.48
2023-01-05T21:14:13.073Z,7.41
2023-01-05T21:16:43.106Z,7.35
2023-01-05T21:19:17.460Z,7.22
2023-01-05T21:21:45.118Z,7.13
2023-01-05T21:24:15.393Z,7.04
2023-01-05T21:26:47.860Z,6.99
2023-01-05T21:29:20.181Z,7.00
2023-01-05T21:31:50.228Z,6.99
2023-01-05T21:34:19.682Z,6.96
2023-01-05T21:36:48.304Z,6.92
2023-01-05T21:39:21.546Z,6.80
2023-01-05T21:42:08.204Z,6.69
2023-01-05T21:44:35.139Z,6.65
2023-01-05T21:47:07.805Z,6.60
2023-01-05T21:49:38.349Z,6.57
2023-01-05T21:52:24.320Z,6.46
2023-01-05T21:55:09.345Z,6.37
2023-01-05T21:57:36.721Z,6.21
2023-01-05T22:00:05.054Z,6.16
2023-01-05T22:02:31.719Z,6.19
2023-01-05T22:04:58.107Z,6.16
2023-01-05T22:07:24.523Z,6.22
2023-01-05T22:09:50.926Z,6.29
2023-01-05T22:12:17.328Z,6.20
2023-01-05T22:14:45.483Z,6.11
2023-01-05T22:17:11.905Z,6.20
2023-01-05T22:19:38.303Z,6.21
2023-01-05T22:22:04.872Z,6.08
2023-01-05T22:24:31.359Z,5.89
2023-01-05T22:26:57.799Z,5.84
2023-01-05T22:29:24.426Z,5.86
2023-01-05T22:31:51.275Z,5.81
2023-01-05T22:34:17.806Z,5.91
2023-01-05T22:36:44.310Z,5.89
2023-01-05T22:39:12.404Z,5.93
2023-01-05T22:41:38.915Z,5.87
2023-01-05T22:44:06.008Z,5.75
2023-01-05T22:46:32.635Z,5.64
2023-01-05T22:48:59.749Z,5.64
2023-01-05T22:51:29.173Z,5.64
2023-01-05T22:54:02.060Z,5.71
2023-01-05T22:56:32.745Z,5.68
2023-01-05T22:58:59.917Z,5.57
2023-01-05T23:01:38.464Z,5.56
2023-01-05T23:04:06.533Z,5.56
2023-01-05T23:06:33.309Z,5.67
2023-01-05T23:09:02.747Z,5.61
2023-01-05T23:11:33.526Z,5.40
2023-01-05T23:14:02.044Z,5.45
2023-01-05T23:16:28.724Z,5.44
2023-01-05T23:18:58.015Z,5.46
2023-01-05T23:21:29.075Z,5.34
2023-01-05T23:23:56.484Z,5.26
2023-01-05T23:26:24.046Z,5.36
2023-01-05T23:28:50.455Z,5.39
2023-01-05T23:31:19.046Z,5.41
2023-01-05T23:33:47.244Z,5.39
2023-01-05T23:36:15.810Z,5.35
2023-01-05T23:38:42.670Z,5.30
2023-01-05T23:41:11.794Z,5.17
2023-01-05T23:43:39.924Z,5.11
2023-01-05T23:46:11.791Z,5.11
2023-01-05T23:48:38.539Z,5.12
2023-01-05T23:51:11.224Z,5.22
2023-01-05T23:53:41.681Z,5.24
2023-01-05T23:56:17.220Z,5.21
2023-01-05T23:58:43.978Z,5.15
